createdAt,value
2022-12-17T00:00:51.593Z,25.52
2022-12-17T00:03:37.691Z,24.67
2022-12-17T00:06:22.977Z,26.70
2022-12-17T00:09:08.223Z,26.25
2022-12-17T00:11:53.860Z,26.17
2022-12-17T00:14:41.288Z,28.80
2022-12-17T00:17:26.583Z,28.88
2022-12-17T00:20:11.843Z,30.85
2022-12-17T00:22:57.047Z,29.70
2022-12-17T00:25:44.501Z,27.45
2022-12-17T00:28:31.419Z,28.98
2022-12-17T00:31:17.510Z,28.00
2022-12-17T00:34:03.338Z,26.33
2022-12-17T00:36:48.392Z,28.13
2022-12-17T00:39:33.559Z,30.60
2022-12-17T00:42:18.747Z,28.77
2022-12-17T00:45:04.054Z,29.35
2022-12-17T00:47:48.990Z,28.42
2022-12-17T00:50:34.826Z,28.05
2022-12-17T00:53:20.863Z,28.42
2022-12-17T00:56:05.865Z,28.08
2022-12-17T00:58:51.767Z,28.92
2022-12-17T01:01:37.263Z,29.42
2022-12-17T01:04:23.302Z,28.23
2022-12-17T01:07:08.665Z,29.77
2022-12-17T01:09:53.919Z,27.30
2022-12-17T01:12:39.306Z,26.45
2022-12-17T01:15:25.646Z,26.20
2022-12-17T01:18:10.977Z,26.55
2022-12-17T01:21:10.192Z,27.70
2022-12-17T01:23:55.315Z,27.13
2022-12-17T01:26:41.368Z,28.35
2022-12-17T01:29:26.746Z,25.63
2022-12-17T01:32:12.011Z,26.58
2022-12-17T01:34:57.192Z,26.92
2022-12-17T01:37:42.249Z,27.63
2022-12-17T01:40:42.846Z,26.13
2022-12-17T01:43:31.499Z,26.17
2022-12-17T01:46:17.439Z,27.92
2022-12-17T01:49:06.313Z,27.08
2022-12-17T01:51:52.575Z,26.10
2022-12-17T01:54:38.265Z,26.73
2022-12-17T01:57:25.594Z,23.08
2022-12-17T02:00:26.817Z,23.77
2022-12-17T02:03:12.587Z,24.08
2022-12-17T02:06:25.249Z,28.13
2022-12-17T02:09:34.584Z,25.25
2022-12-17T02:12:34.398Z,25.80
2022-12-17T02:15:50.749Z,25.92
2022-12-17T02:18:48.935Z,24.77
2022-12-17T02:21:34.114Z,25.15
2022-12-17T02:24:52.868Z,24.25
2022-12-17T02:27:38.700Z,25.83
2022-12-17T02:30:26.429Z,25.42
2022-12-17T02:33:13.048Z,22.92
2022-12-17T02:36:03.795Z,26.67
2022-12-17T02:38:50.709Z,26.00
2022-12-17T02:41:43.036Z,28.02
2022-12-17T02:44:31.920Z,23.25
2022-12-17T02:47:18.631Z,24.52
2022-12-17T02:50:03.863Z,23.95
2022-12-17T02:52:51.854Z,24.90
2022-12-17T02:55:37.077Z,28.40
2022-12-17T02:58:22.302Z,27.17
2022-12-17T03:01:07.610Z,24.20
2022-12-17T03:03:52.801Z,24.63
2022-12-17T03:06:37.967Z,24.75
2022-12-17T03:09:23.047Z,25.42
2022-12-17T03:12:08.238Z,24.90
2022-12-17T03:14:53.554Z,27.65
2022-12-17T03:17:38.843Z,23.38
2022-12-17T03:20:25.076Z,27.52
2022-12-17T03:23:10.159Z,28.90
2022-12-17T03:25:55.341Z,27.52
2022-12-17T03:28:40.409Z,27.10
2022-12-17T03:31:25.588Z,25.85
2022-12-17T03:34:10.995Z,26.73
2022-12-17T03:36:56.150Z,26.90
2022-12-17T03:39:41.335Z,25.45
2022-12-17T03:42:26.604Z,25.42
2022-12-17T03:45:11.880Z,24.42
2022-12-17T03:47:56.867Z,28.95
2022-12-17T03:50:42.180Z,26.70
2022-12-17T03:53:27.259Z,25.73
2022-12-17T03:56:12.432Z,24.70
2022-12-17T03:58:57.617Z,26.77
2022-12-17T04:01:43.458Z,26.52
2022-12-17T04:04:28.749Z,27.30
2022-12-17T04:07:13.831Z,25.98
2022-12-17T04:09:59.537Z,25.77
2022-12-17T04:12:44.650Z,23.65
2022-12-17T04:15:30.026Z,26.00
2022-12-17T04:18:15.408Z,24.42
2022-12-17T04:21:00.405Z,24.30
2022-12-17T04:23:45.673Z,22.95
2022-12-17T04:26:30.872Z,25.90
2022-12-17T04:29:16.071Z,24.52
2022-12-17T04:32:01.282Z,26.40
2022-12-17T04:34:46.555Z,29.33
2022-12-17T04:37:31.784Z,28.75
2022-12-17T04:40:16.961Z,28.05
2022-12-17T04:43:02.299Z,27.25
2022-12-17T04:45:47.389Z,28.27
2022-12-17T04:48:32.479Z,27.20
2022-12-17T04:51:17.576Z,26.85
2022-12-17T04:54:02.850Z,29.38
2022-12-17T04:56:48.009Z,29.25
2022-12-17T04:59:33.093Z,26.67
2022-12-17T05:02:18.455Z,27.33
2022-12-17T05:05:03.740Z,28.77
2022-12-17T05:07:48.824Z,25.90
2022-12-17T05:10:34.550Z,27.30
2022-12-17T05:13:20.732Z,28.02
2022-12-17T05:16:06.507Z,27.25
2022-12-17T05:18:51.616Z,26.55
2022-12-17T05:21:36.814Z,25.60
2022-12-17T05:24:22.281Z,24.00
2022-12-17T05:27:07.374Z,25.60
2022-12-17T05:29:52.715Z,24.77
2022-12-17T05:32:37.816Z,25.15
2022-12-17T05:35:23.597Z,24.77
2022-12-17T05:38:08.682Z,24.25
2022-12-17T05:40:53.936Z,23.70
2022-12-17T05:43:39.460Z,26.60
2022-12-17T05:46:24.765Z,24.73
2022-12-17T05:49:10.048Z,25.98
2022-12-17T05:51:55.162Z,25.30
2022-12-17T05:54:40.462Z,24.70
2022-12-17T05:57:25.546Z,24.55
2022-12-17T06:00:10.782Z,22.67
2022-12-17T06:02:56.089Z,23.80
2022-12-17T06:05:41.335Z,25.17
2022-12-17T06:08:28.297Z,21.70
2022-12-17T06:11:17.215Z,22.63
2022-12-17T06:14:02.909Z,22.77
2022-12-17T06:16:48.236Z,21.45
2022-12-17T06:19:33.399Z,20.90
2022-12-17T06:22:19.645Z,19.35
2022-12-17T06:25:04.822Z,17.98
2022-12-17T06:27:50.155Z,18.95
2022-12-17T06:30:35.433Z,18.92
2022-12-17T06:33:26.335Z,17.23
2022-12-17T06:36:21.327Z,17.98
2022-12-17T06:39:07.503Z,16.15
2022-12-17T06:41:52.589Z,16.13
2022-12-17T06:44:37.878Z,15.95
2022-12-17T06:47:22.957Z,15.73
2022-12-17T06:50:08.147Z,16.00
2022-12-17T06:52:53.519Z,15.02
2022-12-17T06:55:38.681Z,16.90
2022-12-17T06:58:24.274Z,15.70
2022-12-17T07:01:10.050Z,16.00
2022-12-17T07:03:55.368Z,15.30
2022-12-17T07:06:40.963Z,14.30
2022-12-17T07:09:26.196Z,16.33
2022-12-17T07:12:11.511Z,14.60
2022-12-17T07:14:56.717Z,15.35
2022-12-17T07:17:42.248Z,15.50
2022-12-17T07:20:28.460Z,17.42
2022-12-17T07:23:16.631Z,13.90
2022-12-17T07:26:01.976Z,16.13
2022-12-17T07:28:47.091Z,16.52
2022-12-17T07:31:32.597Z,18.00
2022-12-17T07:34:17.739Z,15.05
2022-12-17T07:37:03.019Z,16.60
2022-12-17T07:39:48.242Z,17.23
2022-12-17T07:42:33.575Z,18.30
2022-12-17T07:45:18.725Z,16.77
2022-12-17T07:48:12.066Z,18.98
2022-12-17T07:50:57.241Z,16.73
2022-12-17T07:53:42.354Z,15.90
2022-12-17T07:56:27.555Z,18.23
2022-12-17T07:59:12.702Z,18.90
2022-12-17T08:01:58.124Z,18.77
2022-12-17T08:04:43.261Z,17.05
2022-12-17T08:07:28.464Z,18.25
2022-12-17T08:10:13.424Z,17.05
2022-12-17T08:12:58.457Z,18.40
2022-12-17T08:15:43.619Z,18.30
2022-12-17T08:18:29.082Z,18.40
2022-12-17T08:21:14.336Z,17.02
2022-12-17T08:23:59.806Z,15.65
2022-12-17T08:26:48.111Z,16.33
2022-12-17T08:29:34.404Z,14.73
2022-12-17T08:32:19.522Z,15.30
2022-12-17T08:35:04.630Z,14.38
2022-12-17T08:37:49.732Z,15.30
2022-12-17T08:40:35.017Z,14.70
2022-12-17T08:43:20.296Z,14.40
2022-12-17T08:46:11.018Z,12.95
2022-12-17T08:48:57.333Z,13.38
2022-12-17T08:51:43.096Z,13.65
2022-12-17T08:54:28.859Z,12.38
2022-12-17T08:57:22.618Z,12.93
2022-12-17T09:00:16.321Z,14.05
2022-12-17T09:03:01.651Z,12.38
2022-12-17T09:05:46.974Z,12.45
2022-12-17T09:08:32.057Z,11.07
2022-12-17T09:11:20.196Z,12.50
2022-12-17T09:14:05.497Z,12.52
2022-12-17T09:16:50.626Z,14.48
2022-12-17T09:19:35.794Z,15.30
2022-12-17T09:22:20.988Z,15.25
2022-12-17T09:25:06.185Z,15.30
2022-12-17T09:27:51.254Z,14.95
2022-12-17T09:30:36.559Z,14.30
2022-12-17T09:33:21.832Z,15.25
2022-12-17T09:36:06.968Z,15.43
2022-12-17T09:38:52.116Z,13.65
2022-12-17T09:42:01.036Z,13.88
2022-12-17T09:45:18.385Z,13.75
2022-12-17T09:48:39.258Z,15.10
2022-12-17T09:51:24.473Z,14.70
2022-12-17T09:54:11.515Z,14.65
2022-12-17T09:56:59.206Z,16.50
2022-12-17T09:59:54.576Z,14.98
2022-12-17T10:02:45.126Z,13.75
2022-12-17T10:05:44.735Z,14.32
2022-12-17T10:08:34.828Z,13.77
2022-12-17T10:11:37.819Z,12.10
2022-12-17T10:14:46.821Z,12.77
2022-12-17T10:17:37.635Z,12.90
2022-12-17T10:20:37.428Z,12.57
2022-12-17T10:23:22.847Z,12.05
2022-12-17T10:26:15.499Z,14.85
2022-12-17T10:29:00.539Z,12.10
2022-12-17T10:31:48.964Z,14.10
2022-12-17T10:34:39.108Z,14.35
2022-12-17T10:37:25.312Z,13.82
2022-12-17T10:40:19.679Z,16.17
2022-12-17T10:43:06.015Z,15.77
2022-12-17T10:45:54.266Z,14.98
2022-12-17T10:48:49.639Z,15.15
2022-12-17T10:51:55.958Z,14.30
2022-12-17T10:54:53.491Z,15.38
2022-12-17T10:57:58.860Z,15.00
2022-12-17T11:00:58.952Z,16.02
2022-12-17T11:04:08.661Z,16.27
2022-12-17T11:06:59.540Z,15.68
2022-12-17T11:10:10.459Z,15.73
2022-12-17T11:13:04.911Z,16.17
2022-12-17T11:16:11.074Z,16.20
2022-12-17T11:19:30.090Z,17.10
2022-12-17T11:22:21.451Z,17.38
2022-12-17T11:25:56.714Z,18.13
2022-12-17T11:28:48.307Z,12.70
2022-12-17T11:32:03.427Z,16.27
2022-12-17T11:38:30.450Z,15.20
2022-12-17T11:41:42.583Z,17.40
2022-12-17T11:44:47.275Z,16.73
2022-12-17T11:48:13.271Z,16.13
2022-12-17T11:51:12.751Z,16.63
2022-12-17T11:54:24.166Z,14.85
2022-12-17T11:57:27.315Z,15.85
2022-12-17T12:00:25.671Z,15.52
2022-12-17T12:03:23.929Z,14.80
2022-12-17T12:06:17.289Z,15.55
2022-12-17T12:09:27.019Z,17.10
2022-12-17T12:12:31.060Z,14.38
2022-12-17T12:15:33.547Z,15.88
2022-12-17T12:18:53.288Z,16.63
2022-12-17T12:21:57.091Z,14.70
2022-12-17T12:25:04.475Z,14.60
2022-12-17T12:28:26.368Z,16.42
2022-12-17T12:31:42.095Z,14.65
2022-12-17T12:34:39.859Z,13.98
2022-12-17T12:37:26.692Z,13.07
2022-12-17T12:40:46.495Z,13.65
2022-12-17T12:44:09.176Z,12.63
2022-12-17T12:47:11.901Z,13.13
2022-12-17T12:50:13.051Z,12.48
2022-12-17T12:52:58.763Z,13.05
2022-12-17T12:55:57.271Z,12.38
2022-12-17T12:58:51.581Z,11.73
2022-12-17T13:01:38.687Z,11.40
2022-12-17T13:04:52.086Z,10.57
2022-12-17T13:07:29.330Z,10.45
2022-12-17T13:09:58.812Z,11.32
2022-12-17T13:13:20.391Z,10.70
2022-12-17T13:15:53.415Z,11.05
2022-12-17T13:18:40.950Z,11.03
2022-12-17T13:21:17.177Z,11.63
2022-12-17T13:23:44.316Z,10.15
2022-12-17T13:26:21.780Z,10.65
2022-12-17T13:29:02.269Z,10.55
2022-12-17T13:32:03.766Z,10.77
2022-12-17T13:34:57.836Z,11.05
2022-12-17T13:37:45.195Z,8.57
2022-12-17T13:41:10.181Z,10.13
2022-12-17T13:43:58.855Z,10.70
2022-12-17T13:46:48.052Z,11.40
2022-12-17T13:49:29.854Z,11.82
2022-12-17T13:52:17.538Z,11.45
2022-12-17T13:54:44.823Z,11.07
2022-12-17T13:57:25.269Z,11.63
2022-12-17T13:59:54.533Z,13.32
2022-12-17T14:02:31.897Z,12.20
2022-12-17T14:05:08.001Z,11.25
2022-12-17T14:07:39.043Z,12.07
2022-12-17T14:10:15.454Z,12.20
2022-12-17T14:12:42.447Z,11.73
2022-12-17T14:15:28.130Z,12.23
2022-12-17T14:17:56.719Z,11.80
2022-12-17T14:20:26.620Z,12.98
2022-12-17T14:23:03.910Z,12.27
2022-12-17T14:25:39.480Z,14.13
2022-12-17T14:28:38.428Z,13.50
2022-12-17T14:31:29.810Z,12.68
2022-12-17T14:34:10.839Z,12.75
2022-12-17T14:36:41.148Z,13.88
2022-12-17T14:39:33.056Z,14.15
2022-12-17T14:42:44.870Z,14.05
2022-12-17T14:45:14.537Z,14.10
2022-12-17T14:48:01.738Z,13.98
2022-12-17T14:50:35.391Z,14.48
2022-12-17T14:53:23.945Z,15.60
2022-12-17T14:55:58.499Z,13.85
2022-12-17T14:58:27.591Z,14.90
2022-12-17T15:01:16.198Z,16.63
2022-12-17T15:03:46.592Z,16.00
2022-12-17T15:06:20.216Z,15.85
2022-12-17T15:08:49.322Z,16.67
2022-12-17T15:11:22.022Z,17.15
2022-12-17T15:13:52.952Z,17.67
2022-12-17T15:16:23.294Z,17.92
2022-12-17T15:18:50.212Z,18.15
2022-12-17T15:21:18.459Z,19.42
2022-12-17T15:23:46.950Z,19.08
2022-12-17T15:26:15.140Z,20.45
2022-12-17T15:28:42.801Z,20.10
2022-12-17T15:31:12.627Z,23.40
2022-12-17T15:33:40.644Z,25.25
2022-12-17T15:36:09.185Z,21.48
2022-12-17T15:38:36.333Z,23.25
2022-12-17T15:41:25.586Z,21.77
2022-12-17T15:43:52.807Z,20.15
2022-12-17T15:46:19.676Z,21.70
2022-12-17T15:48:50.190Z,20.52
2022-12-17T15:51:19.942Z,21.30
2022-12-17T15:53:48.180Z,20.33
2022-12-17T15:56:21.990Z,20.33
2022-12-17T15:58:48.800Z,18.25
2022-12-17T16:01:15.868Z,20.13
2022-12-17T16:03:42.785Z,19.83
2022-12-17T16:06:10.353Z,19.17
2022-12-17T16:08:40.788Z,18.70
2022-12-17T16:11:09.940Z,21.25
2022-12-17T16:13:38.468Z,25.15
2022-12-17T16:16:06.942Z,26.75
2022-12-17T16:18:33.982Z,23.42
2022-12-17T16:21:08.809Z,22.40
2022-12-17T16:23:36.597Z,21.33
2022-12-17T16:26:06.648Z,22.20
2022-12-17T16:28:35.454Z,21.90
2022-12-17T16:31:07.703Z,21.00
2022-12-17T16:33:36.939Z,22.67
2022-12-17T16:36:06.012Z,22.58
2022-12-17T16:38:33.620Z,22.35
2022-12-17T16:41:03.261Z,20.42
2022-12-17T16:43:34.062Z,21.42
2022-12-17T16:46:01.441Z,21.85
2022-12-17T16:48:28.273Z,21.88
2022-12-17T16:50:55.091Z,22.35
2022-12-17T16:53:22.050Z,23.20
2022-12-17T16:55:49.948Z,24.35
2022-12-17T16:58:17.815Z,25.20
2022-12-17T17:00:46.078Z,25.20
2022-12-17T17:03:13.350Z,23.73
2022-12-17T17:05:40.425Z,26.35
2022-12-17T17:08:07.230Z,27.02
2022-12-17T17:10:36.741Z,25.17
2022-12-17T17:13:04.183Z,25.58
2022-12-17T17:15:31.601Z,26.83
2022-12-17T17:18:01.434Z,24.55
2022-12-17T17:20:32.127Z,24.77
2022-12-17T17:22:59.572Z,25.25
2022-12-17T17:25:43.954Z,25.45
2022-12-17T17:28:13.705Z,25.35
2022-12-17T17:30:40.501Z,24.35
2022-12-17T17:33:07.263Z,25.02
2022-12-17T17:35:34.038Z,23.98
2022-12-17T17:38:00.886Z,23.17
2022-12-17T17:40:27.710Z,23.25
2022-12-17T17:42:54.479Z,22.67
2022-12-17T17:45:21.286Z,23.17
2022-12-17T17:47:48.046Z,21.38
2022-12-17T17:50:14.827Z,21.65
2022-12-17T17:52:41.601Z,21.50
2022-12-17T17:55:08.467Z,21.90
2022-12-17T17:57:35.233Z,21.70
2022-12-17T18:00:02.725Z,22.65
2022-12-17T18:02:29.664Z,21.48
2022-12-17T18:04:56.601Z,21.67
2022-12-17T18:07:26.091Z,23.67
2022-12-17T18:09:54.479Z,23.45
2022-12-17T18:12:40.248Z,22.80
2022-12-17T18:15:16.809Z,23.35
2022-12-17T18:17:51.166Z,21.88
2022-12-17T18:20:18.788Z,21.85
2022-12-17T18:22:46.124Z,23.02
2022-12-17T18:25:13.373Z,21.88
2022-12-17T18:27:40.144Z,21.80
2022-12-17T18:30:08.269Z,22.48
2022-12-17T18:32:35.016Z,24.88
2022-12-17T18:35:01.822Z,23.50
2022-12-17T18:37:28.601Z,22.20
2022-12-17T18:39:55.366Z,23.50
2022-12-17T18:42:40.618Z,22.63
2022-12-17T18:45:07.922Z,20.95
2022-12-17T18:47:34.666Z,21.15
2022-12-17T18:50:01.439Z,21.33
2022-12-17T18:52:28.215Z,21.63
2022-12-17T18:54:54.979Z,21.02
2022-12-17T18:57:21.797Z,22.35
2022-12-17T18:59:49.176Z,20.90
2022-12-17T19:02:16.092Z,21.80
2022-12-17T19:04:43.202Z,19.58
2022-12-17T19:07:10.418Z,21.35
2022-12-17T19:09:39.418Z,22.15
2022-12-17T19:12:08.429Z,22.10
2022-12-17T19:14:35.303Z,22.88
2022-12-17T19:17:03.024Z,22.23
2022-12-17T19:19:29.793Z,23.17
2022-12-17T19:21:58.573Z,23.88
2022-12-17T19:24:25.481Z,25.20
2022-12-17T19:26:52.611Z,23.17
2022-12-17T19:29:20.796Z,23.27
2022-12-17T19:31:47.870Z,22.15
2022-12-17T19:34:17.200Z,22.33
2022-12-17T19:36:45.119Z,23.13
2022-12-17T19:39:18.652Z,22.90
2022-12-17T19:41:45.954Z,22.10
2022-12-17T19:44:15.854Z,22.17
2022-12-17T19:46:43.447Z,21.70
2022-12-17T19:49:15.400Z,22.10
2022-12-17T19:51:44.177Z,21.63
2022-12-17T19:54:13.747Z,23.05
2022-12-17T19:56:40.556Z,24.52
2022-12-17T19:59:09.910Z,21.58
2022-12-17T20:01:45.292Z,23.20
2022-12-17T20:04:14.618Z,23.05
2022-12-17T20:06:41.974Z,23.73
2022-12-17T20:09:08.968Z,22.92
2022-12-17T20:11:36.449Z,23.88
2022-12-17T20:14:12.095Z,22.40
2022-12-17T20:16:50.685Z,20.35
2022-12-17T20:19:26.887Z,20.48
2022-12-17T20:21:55.443Z,21.85
2022-12-17T20:24:28.853Z,21.70
2022-12-17T20:26:57.766Z,23.13
2022-12-17T20:29:25.385Z,20.88
2022-12-17T20:31:53.554Z,19.98
2022-12-17T20:34:20.726Z,20.63
2022-12-17T20:36:47.624Z,21.25
2022-12-17T20:39:14.431Z,21.35
2022-12-17T20:41:41.803Z,20.90
2022-12-17T20:44:13.175Z,20.77
2022-12-17T20:46:43.646Z,21.27
2022-12-17T20:49:12.289Z,22.02
2022-12-17T20:51:39.109Z,23.35
2022-12-17T20:54:08.175Z,23.83
2022-12-17T20:56:35.587Z,23.45
2022-12-17T20:59:08.608Z,23.55
2022-12-17T21:01:36.838Z,22.10
2022-12-17T21:04:07.267Z,20.67
2022-12-17T21:06:47.110Z,20.45
2022-12-17T21:09:15.962Z,19.98
2022-12-17T21:11:42.735Z,19.60
2022-12-17T21:14:13.932Z,18.80
2022-12-17T21:16:42.230Z,20.33
2022-12-17T21:19:12.901Z,20.23
2022-12-17T21:21:39.690Z,20.05
2022-12-17T21:24:08.155Z,20.77
2022-12-17T21:26:38.815Z,19.92
2022-12-17T21:29:07.887Z,20.83
2022-12-17T21:31:41.366Z,20.75
2022-12-17T21:34:12.855Z,20.38
2022-12-17T21:36:40.037Z,22.25
2022-12-17T21:39:09.425Z,21.00
2022-12-17T21:41:40.036Z,22.42
2022-12-17T21:44:12.722Z,21.90
2022-12-17T21:46:40.581Z,20.48
2022-12-17T21:49:07.423Z,20.88
2022-12-17T21:51:34.515Z,20.73
2022-12-17T21:54:08.181Z,19.58
2022-12-17T21:56:35.954Z,19.85
2022-12-17T21:59:02.745Z,19.70
2022-12-17T22:01:33.016Z,20.08
2022-12-17T22:04:04.125Z,20.95
2022-12-17T22:06:35.770Z,19.95
2022-12-17T22:09:18.801Z,20.25
2022-12-17T22:12:14.776Z,19.77
2022-12-17T22:14:41.604Z,20.65
2022-12-17T22:17:08.422Z,20.92
2022-12-17T22:19:35.249Z,20.42
2022-12-17T22:22:02.003Z,19.65
2022-12-17T22:24:29.344Z,19.27
2022-12-17T22:27:02.661Z,19.83
2022-12-17T22:29:47.829Z,20.05
2022-12-17T22:32:33.726Z,20.33
2022-12-17T22:36:24.402Z,20.42
2022-12-17T22:40:57.018Z,20.45
2022-12-17T22:44:34.957Z,19.58
2022-12-17T22:44:41.942Z,19.20
2022-12-17T22:46:16.572Z,20.30
2022-12-17T22:48:43.610Z,20.13
2022-12-17T22:51:15.157Z,18.98
2022-12-17T22:53:53.803Z,19.45
2022-12-17T22:56:49.450Z,18.17
2022-12-17T22:59:15.230Z,20.40
2022-12-17T23:01:42.034Z,18.17
2022-12-17T23:04:13.543Z,19.15
2022-12-17T23:06:41.488Z,21.15
2022-12-17T23:09:08.260Z,19.13
2022-12-17T23:11:35.176Z,20.77
2022-12-17T23:14:01.933Z,19.02
2022-12-17T23:16:28.870Z,20.45
2022-12-17T23:18:55.863Z,19.73
2022-12-17T23:21:26.211Z,18.95
2022-12-17T23:23:54.209Z,18.77
2022-12-17T23:26:24.865Z,18.30
2022-12-17T23:29:01.685Z,18.75
2022-12-17T23:31:33.691Z,16.95
2022-12-17T23:34:00.533Z,18.52
2022-12-17T23:36:28.032Z,19.63
2022-12-17T23:38:56.292Z,18.98
2022-12-17T23:41:27.127Z,19.20
2022-12-17T23:43:55.247Z,19.50
2022-12-17T23:46:23.949Z,19.27
2022-12-17T23:48:51.378Z,19.08
2022-12-17T23:51:20.897Z,18.40
2022-12-17T23:53:48.113Z,19.10
2022-12-17T23:56:23.806Z,17.83
2022-12-17T23:58:57.483Z,18.75
